sensor_id;sensor_type;location;lat;lon;timestamp;pressure;altitude;pressure_sealevel;temperature;humidity
18137;BME280;9194;42.632;23.298;2023-01-31T00:00:46;92023.22;;;1.35;79.47
18137;BME280;9194;42.632;23.298;2023-01-31T00:11:35;92033.66;;;0.82;85.18
18137;BME280;9194;42.632;23.298;2023-01-31T00:16:56;92021.66;;;0.68;86.33
18137;BME280;9194;42.632;23.298;2023-01-31T00:22:16;92035.72;;;0.58;87.72
18137;BME280;9194;42.632;23.298;2023-01-31T00:27:36;92038.28;;;0.20;88.04
18137;BME280;9194;42.632;23.298;2023-01-31T00:32:56;92049.50;;;-0.18;89.88
18137;BME280;9194;42.632;23.298;2023-01-31T00:38:17;92054.81;;;-0.28;90.83
18137;BME280;9194;42.632;23.298;2023-01-31T00:43:37;92038.75;;;-0.36;92.78
18137;BME280;9194;42.632;23.298;2023-01-31T00:48:38;92035.78;;;-0.48;95.49
18137;BME280;9194;42.632;23.298;2023-01-31T00:53:40;92041.34;;;-0.45;95.19
18137;BME280;9194;42.632;23.298;2023-01-31T00:58:42;92032.56;;;-0.42;91.85
18137;BME280;9194;42.632;23.298;2023-01-31T01:03:44;92028.41;;;-0.20;67.36
18137;BME280;9194;42.632;23.298;2023-01-31T01:08:46;92025.63;;;0.71;52.25
18137;BME280;9194;42.632;23.298;2023-01-31T01:13:48;92052.09;;;1.07;46.89
18137;BME280;9194;42.632;23.298;2023-01-31T01:18:51;92059.41;;;1.40;51.46
18137;BME280;9194;42.632;23.298;2023-01-31T01:23:57;92064.00;;;1.44;54.17
18137;BME280;9194;42.632;23.298;2023-01-31T01:29:00;92040.06;;;1.22;55.56
18137;BME280;9194;42.632;23.298;2023-01-31T01:34:05;92040.94;;;1.30;52.52
18137;BME280;9194;42.632;23.298;2023-01-31T01:39:09;92007.34;;;1.24;53.68
18137;BME280;9194;42.632;23.298;2023-01-31T01:49:41;92009.16;;;1.45;49.89
18137;BME280;9194;42.632;23.298;2023-01-31T01:54:58;92036.19;;;1.27;46.69
18137;BME280;9194;42.632;23.298;2023-01-31T02:00:09;92025.63;;;1.36;46.82
18137;BME280;9194;42.632;23.298;2023-01-31T02:05:21;92022.88;;;1.38;50.06
18137;BME280;9194;42.632;23.298;2023-01-31T02:10:35;92022.06;;;1.16;53.91
18137;BME280;9194;42.632;23.298;2023-01-31T02:15:41;92026.19;;;1.17;46.81
18137;BME280;9194;42.632;23.298;2023-01-31T02:57:54;92041.81;;;1.37;60.23
18137;BME280;9194;42.632;23.298;2023-01-31T03:02:58;92059.16;;;1.20;65.79
18137;BME280;9194;42.632;23.298;2023-01-31T03:08:01;92066.44;;;1.16;68.36
18137;BME280;9194;42.632;23.298;2023-01-31T03:18:10;92103.00;;;0.81;74.33
18137;BME280;9194;42.632;23.298;2023-01-31T03:23:17;92094.06;;;0.62;78.31
18137;BME280;9194;42.632;23.298;2023-01-31T03:28:30;92098.13;;;0.57;82.90
18137;BME280;9194;42.632;23.298;2023-01-31T03:33:35;92105.25;;;0.47;85.38
18137;BME280;9194;42.632;23.298;2023-01-31T03:39:22;92127.03;;;0.43;87.14
18137;BME280;9194;42.632;23.298;2023-01-31T03:49:32;92138.31;;;0.33;90.27
18137;BME280;9194;42.632;23.298;2023-01-31T03:54:44;92139.91;;;0.34;90.96
18137;BME280;9194;42.632;23.298;2023-01-31T03:59:50;92139.00;;;0.27;91.22
18137;BME280;9194;42.632;23.298;2023-01-31T04:10:08;92150.91;;;0.20;92.92
18137;BME280;9194;42.632;23.298;2023-01-31T04:15:13;92156.00;;;0.20;92.61
18137;BME280;9194;42.632;23.298;2023-01-31T04:20:14;92171.59;;;0.11;94.64
18137;BME280;9194;42.632;23.298;2023-01-31T04:25:16;92178.88;;;-0.01;96.52
18137;BME280;9194;42.632;23.298;2023-01-31T04:30:17;92171.81;;;0.01;97.09
18137;BME280;9194;42.632;23.298;2023-01-31T04:35:19;92186.16;;;0.10;96.11
18137;BME280;9194;42.632;23.298;2023-01-31T04:40:20;92176.91;;;0.01;98.44
18137;BME280;9194;42.632;23.298;2023-01-31T04:45:21;92177.47;;;-0.12;98.77
18137;BME280;9194;42.632;23.298;2023-01-31T04:50:23;92198.72;;;-0.11;97.17
18137;BME280;9194;42.632;23.298;2023-01-31T04:55:24;92186.44;;;-0.16;98.10
18137;BME280;9194;42.632;23.298;2023-01-31T05:00:27;92193.63;;;-0.11;97.53
18137;BME280;9194;42.632;23.298;2023-01-31T05:05:29;92179.53;;;-0.07;95.67
18137;BME280;9194;42.632;23.298;2023-01-31T05:10:30;92197.56;;;-0.01;95.28
18137;BME280;9194;42.632;23.298;2023-01-31T05:15:31;92199.91;;;0.09;94.57
18137;BME280;9194;42.632;23.298;2023-01-31T05:20:37;92206.63;;;0.10;93.09
18137;BME280;9194;42.632;23.298;2023-01-31T05:25:40;92211.75;;;0.10;93.03
18137;BME280;9194;42.632;23.298;2023-01-31T05:30:41;92209.19;;;0.10;92.67
18137;BME280;9194;42.632;23.298;2023-01-31T05:35:43;92213.16;;;0.13;94.15
18137;BME280;9194;42.632;23.298;2023-01-31T05:40:45;92222.91;;;0.17;92.84
18137;BME280;9194;42.632;23.298;2023-01-31T05:45:47;92218.25;;;0.13;93.57
18137;BME280;9194;42.632;23.298;2023-01-31T05:50:49;92223.88;;;0.16;94.01
18137;BME280;9194;42.632;23.298;2023-01-31T05:55:51;92227.53;;;0.14;93.89
18137;BME280;9194;42.632;23.298;2023-01-31T06:00:56;92233.47;;;0.14;96.01
18137;BME280;9194;42.632;23.298;2023-01-31T06:05:57;92233.44;;;0.22;95.70
18137;BME280;9194;42.632;23.298;2023-01-31T06:11:03;92246.28;;;0.37;95.77
18137;BME280;9194;42.632;23.298;2023-01-31T06:16:05;92227.03;;;0.41;96.43
18137;BME280;9194;42.632;23.298;2023-01-31T06:21:07;92239.25;;;0.39;97.13
18137;BME280;9194;42.632;23.298;2023-01-31T06:26:08;92229.03;;;0.54;95.51
18137;BME280;9194;42.632;23.298;2023-01-31T06:31:10;92235.31;;;0.74;95.07
18137;BME280;9194;42.632;23.298;2023-01-31T06:36:12;92229.50;;;0.80;92.98
18137;BME280;9194;42.632;23.298;2023-01-31T06:41:13;92239.38;;;0.83;91.90
18137;BME280;9194;42.632;23.298;2023-01-31T06:46:14;92232.09;;;0.95;92.50
18137;BME280;9194;42.632;23.298;2023-01-31T06:51:16;92256.81;;;0.65;94.10
18137;BME280;9194;42.632;23.298;2023-01-31T06:56:18;92250.53;;;0.90;94.87
18137;BME280;9194;42.632;23.298;2023-01-31T07:01:19;92247.81;;;0.92;93.08
18137;BME280;9194;42.632;23.298;2023-01-31T07:06:24;92244.47;;;0.91;92.12
18137;BME280;9194;42.632;23.298;2023-01-31T07:11:25;92250.97;;;0.94;90.15
18137;BME280;9194;42.632;23.298;2023-01-31T07:16:26;92250.25;;;1.08;86.52
18137;BME280;9194;42.632;23.298;2023-01-31T07:21:28;92258.09;;;1.06;90.44
18137;BME280;9194;42.632;23.298;2023-01-31T07:26:29;92255.63;;;0.98;93.20
18137;BME280;9194;42.632;23.298;2023-01-31T07:31:31;92254.44;;;0.86;95.15
18137;BME280;9194;42.632;23.298;2023-01-31T07:36:32;92257.81;;;1.01;95.39
18137;BME280;9194;42.632;23.298;2023-01-31T07:41:33;92255.09;;;1.17;93.88
18137;BME280;9194;42.632;23.298;2023-01-31T07:46:41;92262.50;;;1.50;92.26
18137;BME280;9194;42.632;23.298;2023-01-31T07:51:42;92265.97;;;1.57;90.56
18137;BME280;9194;42.632;23.298;2023-01-31T07:56:43;92258.94;;;1.21;94.54
18137;BME280;9194;42.632;23.298;2023-01-31T08:01:45;92256.47;;;1.43;95.66
18137;BME280;9194;42.632;23.298;2023-01-31T08:07:05;92244.72;;;1.34;93.76
18137;BME280;9194;42.632;23.298;2023-01-31T08:12:07;92251.63;;;1.62;90.64
18137;BME280;9194;42.632;23.298;2023-01-31T08:17:08;92236.25;;;1.62;89.29
18137;BME280;9194;42.632;23.298;2023-01-31T08:22:10;92255.16;;;1.61;89.36
18137;BME280;9194;42.632;23.298;2023-01-31T08:27:11;92247.03;;;1.73;89.99
18137;BME280;9194;42.632;23.298;2023-01-31T08:32:12;92228.50;;;2.06;87.83
18137;BME280;9194;42.632;23.298;2023-01-31T08:37:13;92237.88;;;2.14;87.30
18137;BME280;9194;42.632;23.298;2023-01-31T08:42:15;92233.72;;;2.49;85.07
18137;BME280;9194;42.632;23.298;2023-01-31T08:47:16;92239.53;;;2.22;86.93
18137;BME280;9194;42.632;23.298;2023-01-31T08:52:17;92229.22;;;2.00;88.04
18137;BME280;9194;42.632;23.298;2023-01-31T08:57:18;92223.28;;;2.15;87.31
18137;BME280;9194;42.632;23.298;2023-01-31T09:02:20;92232.50;;;1.94;85.17
18137;BME280;9194;42.632;23.298;2023-01-31T09:07:22;92223.13;;;2.01;83.11
18137;BME280;9194;42.632;23.298;2023-01-31T09:12:23;92239.91;;;2.19;80.36
18137;BME280;9194;42.632;23.298;2023-01-31T09:17:24;92246.50;;;2.28;80.12
18137;BME280;9194;42.632;23.298;2023-01-31T09:22:29;92258.66;;;2.04;83.51
18137;BME280;9194;42.632;23.298;2023-01-31T09:27:30;92246.50;;;2.28;81.26
18137;BME280;9194;42.632;23.298;2023-01-31T09:32:31;92255.25;;;2.69;78.79
18137;BME280;9194;42.632;23.298;2023-01-31T09:37:33;92241.41;;;2.70;78.84
18137;BME280;9194;42.632;23.298;2023-01-31T09:42:40;92231.44;;;2.82;75.62
18137;BME280;9194;42.632;23.298;2023-01-31T09:47:47;92210.22;;;2.73;78.77
18137;BME280;9194;42.632;23.298;2023-01-31T09:52:50;92195.59;;;2.74;79.09
18137;BME280;9194;42.632;23.298;2023-01-31T09:57:58;92179.06;;;2.83;75.32
18137;BME280;9194;42.632;23.298;2023-01-31T10:09:02;92205.56;;;2.83;73.75
18137;BME280;9194;42.632;23.298;2023-01-31T10:14:31;92200.84;;;3.15;74.87
18137;BME280;9194;42.632;23.298;2023-01-31T10:19:56;92191.56;;;2.65;78.03
18137;BME280;9194;42.632;23.298;2023-01-31T10:30:54;92180.84;;;3.38;73.31
18137;BME280;9194;42.632;23.298;2023-01-31T10:35:51;92181.84;;;3.37;69.67
18137;BME280;9194;42.632;23.298;2023-01-31T10:41:05;92181.34;;;3.55;70.37
18137;BME280;9194;42.632;23.298;2023-01-31T10:46:10;92163.75;;;3.58;67.88
18137;BME280;9194;42.632;23.298;2023-01-31T10:56:30;92189.03;;;3.48;67.62
18137;BME280;9194;42.632;23.298;2023-01-31T11:01:34;92193.59;;;3.18;73.09
18137;BME280;9194;42.632;23.298;2023-01-31T11:06:37;92185.28;;;3.23;73.90
18137;BME280;9194;42.632;23.298;2023-01-31T11:11:59;92188.25;;;3.20;78.00
18137;BME280;9194;42.632;23.298;2023-01-31T11:17:21;92194.59;;;2.96;80.74
18137;BME280;9194;42.632;23.298;2023-01-31T11:22:28;92190.09;;;3.26;77.70
18137;BME280;9194;42.632;23.298;2023-01-31T11:27:39;92196.78;;;2.99;80.93
18137;BME280;9194;42.632;23.298;2023-01-31T11:32:42;92206.56;;;2.61;83.67
18137;BME280;9194;42.632;23.298;2023-01-31T11:37:52;92207.75;;;2.86;86.08
18137;BME280;9194;42.632;23.298;2023-01-31T11:48:08;92196.38;;;2.74;89.00
18137;BME280;9194;42.632;23.298;2023-01-31T11:53:22;92204.19;;;2.24;91.88
18137;BME280;9194;42.632;23.298;2023-01-31T11:58:33;92208.13;;;2.05;94.30
18137;BME280;9194;42.632;23.298;2023-01-31T12:03:38;92198.25;;;1.87;96.68
18137;BME280;9194;42.632;23.298;2023-01-31T12:08:41;92191.25;;;1.96;97.93
18137;BME280;9194;42.632;23.298;2023-01-31T12:30:05;92201.94;;;1.99;94.55
18137;BME280;9194;42.632;23.298;2023-01-31T12:41:03;92194.63;;;1.96;93.61
18137;BME280;9194;42.632;23.298;2023-01-31T12:46:19;92213.59;;;2.17;90.28
18137;BME280;9194;42.632;23.298;2023-01-31T12:56:56;92213.59;;;2.17;90.64
18137;BME280;9194;42.632;23.298;2023-01-31T13:12:37;92215.16;;;1.82;93.51
18137;BME280;9194;42.632;23.298;2023-01-31T13:17:41;92209.59;;;1.78;93.63
18137;BME280;9194;42.632;23.298;2023-01-31T13:22:46;92233.75;;;1.84;93.46
18137;BME280;9194;42.632;23.298;2023-01-31T13:27:59;92219.75;;;2.01;92.73
18137;BME280;9194;42.632;23.298;2023-01-31T13:33:13;92224.97;;;1.93;92.42
18137;BME280;9194;42.632;23.298;2023-01-31T13:38:19;92225.16;;;1.91;91.64
18137;BME280;9194;42.632;23.298;2023-01-31T13:43:21;92222.72;;;1.69;92.44
18137;BME280;9194;42.632;23.298;2023-01-31T13:48:32;92235.34;;;1.41;96.90
18137;BME280;9194;42.632;23.298;2023-01-31T13:53:43;92231.91;;;1.34;96.33
18137;BME280;9194;42.632;23.298;2023-01-31T13:58:48;92235.34;;;1.70;94.91
18137;BME280;9194;42.632;23.298;2023-01-31T14:09:28;92244.75;;;1.63;92.65
18137;BME280;9194;42.632;23.298;2023-01-31T14:29:53;92257.91;;;1.60;91.77
18137;BME280;9194;42.632;23.298;2023-01-31T14:34:57;92253.84;;;1.51;91.16
18137;BME280;9194;42.632;23.298;2023-01-31T14:45:18;92266.13;;;1.55;93.64
18137;BME280;9194;42.632;23.298;2023-01-31T14:50:33;92277.78;;;1.43;92.00
18137;BME280;9194;42.632;23.298;2023-01-31T15:00:59;92292.63;;;1.33;92.65
18137;BME280;9194;42.632;23.298;2023-01-31T15:06:16;92300.81;;;1.29;95.73
18137;BME280;9194;42.632;23.298;2023-01-31T15:21:43;92313.91;;;0.96;99.23
18137;BME280;9194;42.632;23.298;2023-01-31T15:26:47;92322.75;;;1.16;97.81
18137;BME280;9194;42.632;23.298;2023-01-31T15:31:59;92323.75;;;1.07;99.26
18137;BME280;9194;42.632;23.298;2023-01-31T15:37:14;92328.31;;;0.97;100.00
18137;BME280;9194;42.632;23.298;2023-01-31T15:42:25;92330.88;;;0.97;98.34
18137;BME280;9194;42.632;23.298;2023-01-31T15:47:27;92334.78;;;0.93;97.82
18137;BME280;9194;42.632;23.298;2023-01-31T15:52:30;92348.47;;;1.00;95.99
18137;BME280;9194;42.632;23.298;2023-01-31T15:57:41;92353.28;;;1.03;95.78
18137;BME280;9194;42.632;23.298;2023-01-31T16:02:45;92353.03;;;0.90;96.13
18137;BME280;9194;42.632;23.298;2023-01-31T16:07:47;92352.00;;;0.99;95.30
18137;BME280;9194;42.632;23.298;2023-01-31T16:12:50;92367.28;;;0.93;95.20
18137;BME280;9194;42.632;23.298;2023-01-31T16:17:55;92374.16;;;0.92;94.77
18137;BME280;9194;42.632;23.298;2023-01-31T16:22:57;92372.16;;;1.02;95.69
18137;BME280;9194;42.632;23.298;2023-01-31T16:28:03;92371.53;;;1.00;94.79
18137;BME280;9194;42.632;23.298;2023-01-31T16:33:05;92381.47;;;1.03;95.11
18137;BME280;9194;42.632;23.298;2023-01-31T16:38:24;92390.75;;;1.04;95.61
18137;BME280;9194;42.632;23.298;2023-01-31T16:43:29;92388.78;;;1.06;95.56
18137;BME280;9194;42.632;23.298;2023-01-31T16:48:36;92396.59;;;0.90;95.55
18137;BME280;9194;42.632;23.298;2023-01-31T16:53:38;92401.97;;;1.03;94.45
18137;BME280;9194;42.632;23.298;2023-01-31T17:04:02;92416.75;;;0.93;95.52
18137;BME280;9194;42.632;23.298;2023-01-31T17:09:05;92419.50;;;0.83;97.43
18137;BME280;9194;42.632;23.298;2023-01-31T17:14:07;92424.03;;;0.81;97.26
18137;BME280;9194;42.632;23.298;2023-01-31T17:19:08;92424.13;;;0.88;94.86
18137;BME280;9194;42.632;23.298;2023-01-31T17:24:13;92436.75;;;0.98;96.66
18137;BME280;9194;42.632;23.298;2023-01-31T17:29:14;92428.66;;;0.86;95.39
18137;BME280;9194;42.632;23.298;2023-01-31T17:34:16;92429.56;;;0.93;95.20
18137;BME280;9194;42.632;23.298;2023-01-31T17:39:17;92435.03;;;0.90;94.90
18137;BME280;9194;42.632;23.298;2023-01-31T17:44:19;92438.25;;;0.84;96.78
18137;BME280;9194;42.632;23.298;2023-01-31T17:49:20;92439.56;;;0.80;95.21
18137;BME280;9194;42.632;23.298;2023-01-31T17:54:21;92446.59;;;0.78;96.70
18137;BME280;9194;42.632;23.298;2023-01-31T17:59:23;92443.66;;;0.89;96.54
18137;BME280;9194;42.632;23.298;2023-01-31T18:04:24;92450.59;;;0.80;95.69
18137;BME280;9194;42.632;23.298;2023-01-31T18:09:27;92455.06;;;0.87;95.44
18137;BME280;9194;42.632;23.298;2023-01-31T18:14:28;92467.69;;;0.88;95.17
18137;BME280;9194;42.632;23.298;2023-01-31T18:19:29;92471.28;;;0.71;96.44
18137;BME280;9194;42.632;23.298;2023-01-31T18:24:31;92472.81;;;0.88;96.44
18137;BME280;9194;42.632;23.298;2023-01-31T18:29:32;92486.66;;;0.71;97.24
18137;BME280;9194;42.632;23.298;2023-01-31T18:34:33;92479.38;;;0.91;97.53
18137;BME280;9194;42.632;23.298;2023-01-31T18:39:35;92479.41;;;0.82;99.36
18137;BME280;9194;42.632;23.298;2023-01-31T18:44:36;92498.63;;;0.78;100.00
18137;BME280;9194;42.632;23.298;2023-01-31T18:49:38;92490.78;;;0.80;99.54
18137;BME280;9194;42.632;23.298;2023-01-31T18:54:39;92486.00;;;0.77;99.04
18137;BME280;9194;42.632;23.298;2023-01-31T18:59:41;92479.97;;;0.70;99.58
18137;BME280;9194;42.632;23.298;2023-01-31T19:04:42;92480.56;;;0.72;98.50
18137;BME280;9194;42.632;23.298;2023-01-31T19:09:43;92479.41;;;0.82;97.92
18137;BME280;9194;42.632;23.298;2023-01-31T19:14:45;92485.25;;;0.60;98.29
18137;BME280;9194;42.632;23.298;2023-01-31T19:19:46;92492.56;;;0.71;97.69
18137;BME280;9194;42.632;23.298;2023-01-31T19:24:47;92497.09;;;0.61;99.43
18137;BME280;9194;42.632;23.298;2023-01-31T19:29:49;92502.38;;;0.68;100.00
18137;BME280;9194;42.632;23.298;2023-01-31T19:34:50;92508.16;;;0.62;100.00
18137;BME280;9194;42.632;23.298;2023-01-31T19:39:51;92503.19;;;0.60;100.00
18137;BME280;9194;42.632;23.298;2023-01-31T19:44:52;92515.81;;;0.62;98.91
18137;BME280;9194;42.632;23.298;2023-01-31T19:49:54;92510.41;;;0.57;99.71
18137;BME280;9194;42.632;23.298;2023-01-31T19:54:55;92515.53;;;0.57;99.99
18137;BME280;9194;42.632;23.298;2023-01-31T19:59:56;92518.41;;;0.54;100.00
18137;BME280;9194;42.632;23.298;2023-01-31T20:04:58;92526.91;;;0.38;100.00
18137;BME280;9194;42.632;23.298;2023-01-31T20:10:00;92541.28;;;0.55;99.95
18137;BME280;9194;42.632;23.298;2023-01-31T20:15:02;92535.72;;;0.44;100.00
18137;BME280;9194;42.632;23.298;2023-01-31T20:20:04;92537.00;;;0.39;100.00
18137;BME280;9194;42.632;23.298;2023-01-31T20:25:06;92554.13;;;0.39;100.00
18137;BME280;9194;42.632;23.298;2023-01-31T20:30:08;92551.25;;;0.34;98.51
18137;BME280;9194;42.632;23.298;2023-01-31T20:35:10;92547.41;;;0.46;98.12
18137;BME280;9194;42.632;23.298;2023-01-31T20:40:11;92568.69;;;0.47;99.49
18137;BME280;9194;42.632;23.298;2023-01-31T20:45:12;92563.22;;;0.41;100.00
18137;BME280;9194;42.632;23.298;2023-01-31T20:50:14;92558.94;;;0.26;100.00
18137;BME280;9194;42.632;23.298;2023-01-31T20:55:16;92566.13;;;0.14;100.00
18137;BME280;9194;42.632;23.298;2023-01-31T21:00:19;92565.47;;;0.12;100.00
18137;BME280;9194;42.632;23.298;2023-01-31T21:05:21;92563.56;;;0.06;100.00
18137;BME280;9194;42.632;23.298;2023-01-31T21:10:24;92568.69;;;0.06;100.00
18137;BME280;9194;42.632;23.298;2023-01-31T21:15:28;92568.84;;;-0.04;100.00
18137;BME280;9194;42.632;23.298;2023-01-31T21:20:30;92570.44;;;-0.11;100.00
18137;BME280;9194;42.632;23.298;2023-01-31T21:25:31;92580.84;;;-0.12;100.00
18137;BME280;9194;42.632;23.298;2023-01-31T21:30:32;92585.16;;;-0.05;100.00
18137;BME280;9194;42.632;23.298;2023-01-31T21:35:34;92571.88;;;0.08;100.00
18137;BME280;9194;42.632;23.298;2023-01-31T21:40:38;92576.06;;;0.17;100.00
18137;BME280;9194;42.632;23.298;2023-01-31T21:45:40;92563.91;;;0.11;100.00
18137;BME280;9194;42.632;23.298;2023-01-31T21:50:42;92582.31;;;0.23;100.00
18137;BME280;9194;42.632;23.298;2023-01-31T21:55:43;92589.00;;;0.40;100.00
18137;BME280;9194;42.632;23.298;2023-01-31T22:00:44;92581.16;;;0.50;100.00
18137;BME280;9194;42.632;23.298;2023-01-31T22:05:45;92576.53;;;0.45;100.00
18137;BME280;9194;42.632;23.298;2023-01-31T22:10:47;92577.50;;;0.28;100.00
18137;BME280;9194;42.632;23.298;2023-01-31T22:15:48;92578.91;;;0.30;100.00
18137;BME280;9194;42.632;23.298;2023-01-31T22:20:49;92581.00;;;0.19;100.00
18137;BME280;9194;42.632;23.298;2023-01-31T22:25:51;92581.50;;;0.22;100.00
18137;BME280;9194;42.632;23.298;2023-01-31T22:30:57;92595.91;;;0.23;100.00
18137;BME280;9194;42.632;23.298;2023-01-31T22:35:59;92584.22;;;0.29;100.00
18137;BME280;9194;42.632;23.298;2023-01-31T22:41:02;92592.03;;;0.19;100.00
18137;BME280;9194;42.632;23.298;2023-01-31T22:46:04;92579.72;;;0.31;100.00
18137;BME280;9194;42.632;23.298;2023-01-31T22:51:13;92573.47;;;0.25;100.00
18137;BME280;9194;42.632;23.298;2023-01-31T22:56:22;92585.66;;;0.23;100.00
18137;BME280;9194;42.632;23.298;2023-01-31T23:01:25;92582.91;;;0.41;100.00
18137;BME280;9194;42.632;23.298;2023-01-31T23:06:28;92576.84;;;0.34;100.00
18137;BME280;9194;42.632;23.298;2023-01-31T23:11:30;92563.41;;;0.32;100.00
18137;BME280;9194;42.632;23.298;2023-01-31T23:16:31;92576.66;;;0.35;100.00
18137;BME280;9194;42.632;23.298;2023-01-31T23:21:51;92579.22;;;0.35;100.00
18137;BME280;9194;42.632;23.298;2023-01-31T23:26:52;92569.00;;;0.35;100.00
18137;BME280;9194;42.632;23.298;2023-01-31T23:31:54;92570.28;;;0.15;100.00
18137;BME280;9194;42.632;23.298;2023-01-31T23:36:55;92571.25;;;0.30;100.00
18137;BME280;9194;42.632;23.298;2023-01-31T23:41:57;92577.50;;;0.20;100.00
18137;BME280;9194;42.632;23.298;2023-01-31T23:46:58;92574.44;;;0.32;100.00
18137;BME280;9194;42.632;23.298;2023-01-31T23:51:59;92584.22;;;0.29;100.00
18137;BME280;9194;42.632;23.298;2023-01-31T23:57:01;92593.81;;;0.27;100.00
